Porbandar Airport

Current Flights

Departures
Number Departure To Airline
 TRJ706 08:55 +92  Ahmedabad  TruJet
 SG2874 11:10  Mumbai  SpiceJet
 2T706 08:55  Ahmedabad  TruJet
 TRJ706 08:55  Ahmedabad  TruJet
 SG2874 11:10  Mumbai  SpiceJet
 TRJ706 08:55  Ahmedabad  TruJet
Arrivals
Number Arrival From Airline
 2T705 08:30  Ahmedabad  TruJet
 SG2873 10:50  Mumbai  SpiceJet
 2T705 08:30  Ahmedabad  TruJet
 SG2873 10:50  Mumbai  SpiceJet
Info
Name: Porbandar Airport
Identifier:  PBD/VAPR
Local Time:  18. Jun 10:27
City
Porbandar
  India

Flights per Day
2 flights
Distance: 387km (240mi)
Punctuality
88% (0 flights per day delayed)
Delay Average: 32 minutes
Current Weather
 28 C (Humidity: 94%)
  11kt (20km/h / 12mph) from 230°
21 knots Gusts

  Broken clouds at 1,200 feet (365 meter)
  Broken clouds at 8,000 feet (2,438 meter)
  2km (1 mi.)
 Haze
 METAR VAPR 180430Z 23011G21KT 2500 HZ BKN012 BKN080 28/27 Q1001

Current Delays

Departures
N/A
Arrivals
N/A

Destinations

Top Destinations
Airport Flights
per week
Seats
per week
  Mumbai (BOM) 11 873 1 124
  Ahmedabad (AMD) 10 - 1 0

Airlines & Planes

Top Airlines
Airline Flights
per Day
Seats
per Day
  SpiceJet 1 124
  TruJet 1 -
Top Plane Types
Model Flights Seats
Bombardier Dash 8-400 1.5/day 119/day 119.6
ATR 76-600 1.5/day - 0
Bombardier Dash 8-400 0.2/day 5/day 5.2